Terminal Aerodrome Forecast
Issued by NWS

Home | Current Version | Previous Version | Text Only | Print | Product List | Glossary On
Versions: 1 2 3 4 5 6 7 8 9
000
FTUS42 TJSJ 251700 RRA
TAFNCM
TAF
TNCM 251741Z 2518/2618 07014KT P6SM VCSH SCT018
      TEMPO 2518/2520 -SHRA BKN015
     FM252300 08007KT P6SM VCSH SCT018 SCT035
     FM261300 09012KT P6SM SCT025=

USA.gov is the U.S. government's official web portal to all federal, state and local government web resources and services.